createdAt,value
2023-01-09T00:01:22.601Z,5.05
2023-01-09T00:03:50.443Z,6.00
2023-01-09T00:06:18.241Z,1.65
2023-01-09T00:08:46.141Z,5.32
2023-01-09T00:11:13.857Z,3.73
2023-01-09T00:13:41.624Z,1.45
2023-01-09T00:16:09.533Z,4.03
2023-01-09T00:18:37.488Z,1.10
2023-01-09T00:21:05.937Z,0.52
2023-01-09T00:23:33.807Z,1.23
2023-01-09T00:26:05.310Z,6.20
2023-01-09T00:28:33.263Z,4.90
2023-01-09T00:31:01.444Z,3.33
2023-01-09T00:33:33.378Z,3.83
2023-01-09T00:36:01.274Z,1.70
2023-01-09T00:38:29.070Z,0.55
2023-01-09T00:40:59.899Z,6.88
2023-01-09T00:43:32.364Z,3.93
2023-01-09T00:46:00.351Z,0.38
2023-01-09T00:48:29.779Z,2.95
2023-01-09T00:50:58.819Z,1.40
2023-01-09T00:53:29.205Z,1.27
2023-01-09T00:55:58.211Z,1.38
2023-01-09T00:58:26.002Z,1.63
2023-01-09T01:00:53.760Z,1.90
2023-01-09T01:03:21.574Z,1.70
2023-01-09T01:06:07.947Z,2.92
2023-01-09T01:08:35.750Z,0.70
2023-01-09T01:11:10.446Z,3.70
2023-01-09T01:13:38.503Z,1.17
2023-01-09T01:16:09.473Z,2.15
2023-01-09T01:18:37.198Z,2.20
2023-01-09T01:21:08.341Z,0.52
2023-01-09T01:23:36.125Z,2.63
2023-01-09T01:26:10.892Z,0.50
2023-01-09T01:28:38.703Z,0.50
2023-01-09T01:31:06.759Z,0.80
2023-01-09T01:33:34.687Z,0.67
2023-01-09T01:36:03.287Z,0.20
2023-01-09T01:38:31.029Z,0.40
2023-01-09T01:40:58.937Z,0.65
2023-01-09T01:43:26.651Z,0.20
2023-01-09T01:45:54.469Z,0.20
2023-01-09T01:48:23.913Z,0.32
2023-01-09T01:50:55.429Z,0.20
2023-01-09T01:53:32.857Z,0.30
2023-01-09T01:56:06.511Z,0.77
2023-01-09T01:58:35.246Z,0.50
2023-01-09T02:01:03.257Z,0.20
2023-01-09T02:03:31.215Z,4.32
2023-01-09T02:05:58.888Z,0.20
2023-01-09T02:08:26.651Z,0.20
2023-01-09T02:10:54.358Z,0.70
2023-01-09T02:13:22.129Z,1.50
2023-01-09T02:15:52.859Z,0.73
2023-01-09T02:18:38.859Z,1.60
2023-01-09T02:21:15.889Z,1.05
2023-01-09T02:24:02.243Z,1.73
2023-01-09T02:26:34.163Z,0.77
2023-01-09T02:29:08.156Z,2.72
2023-01-09T02:31:54.290Z,1.33
2023-01-09T02:34:25.510Z,1.13
2023-01-09T02:37:11.990Z,2.60
2023-01-09T02:39:43.803Z,1.30
2023-01-09T02:42:16.295Z,1.90
2023-01-09T02:44:44.680Z,3.15
2023-01-09T02:47:21.392Z,1.38
2023-01-09T02:49:50.390Z,0.90
2023-01-09T02:52:30.266Z,2.25
2023-01-09T02:55:27.456Z,1.75
2023-01-09T02:57:57.978Z,1.08
2023-01-09T03:00:37.892Z,3.53
2023-01-09T03:03:08.546Z,2.10
2023-01-09T03:05:41.715Z,4.40
2023-01-09T03:08:29.732Z,4.13
2023-01-09T03:11:00.071Z,8.63
2023-01-09T03:13:29.049Z,2.75
2023-01-09T03:15:56.859Z,2.43
2023-01-09T03:18:25.932Z,4.20
2023-01-09T03:20:53.715Z,2.22
2023-01-09T03:23:21.434Z,4.65
2023-01-09T03:25:49.251Z,1.03
2023-01-09T03:28:34.903Z,1.70
2023-01-09T03:31:02.718Z,2.83
2023-01-09T03:33:30.509Z,2.23
2023-01-09T03:35:58.400Z,6.75
2023-01-09T03:38:27.206Z,4.80
2023-01-09T03:40:54.979Z,1.77
2023-01-09T03:43:22.756Z,3.75
2023-01-09T03:45:50.474Z,1.05
2023-01-09T03:48:18.242Z,0.85
2023-01-09T03:50:47.478Z,6.53
2023-01-09T03:53:15.287Z,1.67
2023-01-09T03:55:49.517Z,4.20
2023-01-09T03:58:17.383Z,2.90
2023-01-09T04:00:52.478Z,5.72
2023-01-09T04:03:20.847Z,2.67
2023-01-09T04:05:49.399Z,4.70
2023-01-09T04:08:17.318Z,3.85
2023-01-09T04:10:45.773Z,1.77
2023-01-09T04:13:13.663Z,1.63
2023-01-09T04:15:41.472Z,1.93
2023-01-09T04:18:09.203Z,2.70
2023-01-09T04:20:37.041Z,2.40
2023-01-09T04:23:04.784Z,6.17
2023-01-09T04:25:32.532Z,0.95
2023-01-09T04:28:00.208Z,4.50
2023-01-09T04:30:28.025Z,1.37
2023-01-09T04:32:55.674Z,5.30
2023-01-09T04:35:23.535Z,0.52
2023-01-09T04:37:51.247Z,9.80
2023-01-09T04:40:19.675Z,5.03
2023-01-09T04:42:47.422Z,5.80
2023-01-09T04:45:17.338Z,3.40
2023-01-09T04:47:45.393Z,0.67
2023-01-09T04:50:13.329Z,1.90
2023-01-09T04:52:43.551Z,3.90
2023-01-09T04:55:11.298Z,6.97
2023-01-09T04:57:39.075Z,2.25
2023-01-09T05:00:10.011Z,1.67
2023-01-09T05:02:37.949Z,4.97
2023-01-09T05:05:06.176Z,2.07
2023-01-09T05:07:34.097Z,3.95
2023-01-09T05:10:01.934Z,2.78
2023-01-09T05:12:29.654Z,6.93
2023-01-09T05:14:58.635Z,2.80
2023-01-09T05:17:27.816Z,2.58
2023-01-09T05:19:55.534Z,1.07
2023-01-09T05:22:23.227Z,3.03
2023-01-09T05:24:50.945Z,6.15
2023-01-09T05:27:18.551Z,8.07
2023-01-09T05:29:46.328Z,3.03
2023-01-09T05:32:14.044Z,2.65
2023-01-09T05:34:41.840Z,5.43
2023-01-09T05:37:09.529Z,4.97
2023-01-09T05:39:37.160Z,1.88
2023-01-09T05:42:05.023Z,4.45
2023-01-09T05:44:32.696Z,5.07
2023-01-09T05:47:02.666Z,3.25
2023-01-09T05:49:30.527Z,7.75
2023-01-09T05:51:58.290Z,2.40
2023-01-09T05:54:26.054Z,6.10
2023-01-09T05:56:53.841Z,3.53
2023-01-09T05:59:21.530Z,2.95
2023-01-09T06:01:49.225Z,12.23
2023-01-09T06:04:17.104Z,8.30
2023-01-09T06:06:44.776Z,3.17
2023-01-09T06:09:12.520Z,3.43
2023-01-09T06:11:40.256Z,5.70
2023-01-09T06:14:08.079Z,10.13
2023-01-09T06:16:35.872Z,3.97
2023-01-09T06:19:03.563Z,3.97
2023-01-09T06:21:32.271Z,3.50
2023-01-09T06:23:59.984Z,9.73
2023-01-09T06:26:27.828Z,3.17
2023-01-09T06:28:56.236Z,13.55
2023-01-09T06:31:24.324Z,8.13
2023-01-09T06:33:52.036Z,4.53
2023-01-09T06:36:22.232Z,6.80
2023-01-09T06:38:50.256Z,6.90
2023-01-09T06:41:18.181Z,12.10
2023-01-09T06:43:45.837Z,6.33
2023-01-09T06:46:13.626Z,6.60
2023-01-09T06:48:41.498Z,6.25
2023-01-09T06:51:09.255Z,6.37
2023-01-09T06:53:36.953Z,5.38
2023-01-09T06:56:04.696Z,7.90
2023-01-09T06:58:32.444Z,15.60
2023-01-09T07:01:15.814Z,12.95
2023-01-09T07:03:46.124Z,7.60
2023-01-09T07:06:13.849Z,9.13
2023-01-09T07:08:41.559Z,8.43
2023-01-09T07:11:09.249Z,18.48
2023-01-09T07:13:38.543Z,13.52
2023-01-09T07:16:06.451Z,9.70
2023-01-09T07:18:34.254Z,8.90
2023-01-09T07:21:01.975Z,10.68
2023-01-09T07:23:29.711Z,7.33
2023-01-09T07:25:58.478Z,11.00
2023-01-09T07:28:26.203Z,13.32
2023-01-09T07:30:53.952Z,6.43
2023-01-09T07:33:21.583Z,7.30
2023-01-09T07:35:49.270Z,14.57
2023-01-09T07:38:17.135Z,12.90
2023-01-09T07:40:44.892Z,13.30
2023-01-09T07:43:13.215Z,13.35
2023-01-09T07:45:40.952Z,14.68
2023-01-09T07:48:09.666Z,13.13
2023-01-09T07:50:37.423Z,7.88
2023-01-09T07:53:05.246Z,8.60
2023-01-09T07:55:32.906Z,6.47
2023-01-09T07:58:00.599Z,8.73
2023-01-09T08:00:28.372Z,9.35
2023-01-09T08:02:56.218Z,8.13
2023-01-09T08:05:23.905Z,12.77
2023-01-09T08:07:51.934Z,6.35
2023-01-09T08:10:19.958Z,8.23
2023-01-09T08:12:48.143Z,9.17
2023-01-09T08:15:15.991Z,8.68
2023-01-09T08:17:44.130Z,8.00
2023-01-09T08:20:12.455Z,7.22
2023-01-09T08:22:41.906Z,9.77
2023-01-09T08:25:12.094Z,7.03
2023-01-09T08:27:40.601Z,7.55
2023-01-09T08:30:09.910Z,7.53
2023-01-09T08:32:37.900Z,6.15
2023-01-09T08:35:05.904Z,10.15
2023-01-09T08:37:33.642Z,7.17
2023-01-09T08:40:01.429Z,5.60
2023-01-09T08:42:47.718Z,8.32
2023-01-09T08:45:36.969Z,4.22
2023-01-09T08:48:04.692Z,2.63
2023-01-09T08:50:32.379Z,4.65
2023-01-09T08:53:00.025Z,7.25
2023-01-09T08:55:27.757Z,5.90
2023-01-09T08:57:55.901Z,6.65
2023-01-09T09:00:24.253Z,7.25
2023-01-09T09:02:53.199Z,3.73
2023-01-09T09:05:21.222Z,4.97
2023-01-09T09:07:55.912Z,5.13
2023-01-09T09:10:24.261Z,4.85
2023-01-09T09:12:52.524Z,3.60
2023-01-09T09:15:26.704Z,5.10
2023-01-09T09:17:58.201Z,8.20
2023-01-09T09:20:26.810Z,5.97
2023-01-09T09:22:54.683Z,5.68
2023-01-09T09:25:22.409Z,7.65
2023-01-09T09:27:50.163Z,6.20
2023-01-09T09:30:18.629Z,7.18
2023-01-09T09:32:46.358Z,15.18
2023-01-09T09:35:14.092Z,3.35
2023-01-09T09:37:42.182Z,5.33
2023-01-09T09:40:18.969Z,4.25
2023-01-09T09:43:37.740Z,4.40
2023-01-09T09:46:23.749Z,4.70
2023-01-09T09:48:58.057Z,11.20
2023-01-09T09:51:42.484Z,2.80
2023-01-09T09:54:13.846Z,5.10
2023-01-09T09:56:49.277Z,3.97
2023-01-09T09:59:18.570Z,4.05
2023-01-09T10:02:06.587Z,11.55
2023-01-09T10:04:34.237Z,4.37
2023-01-09T10:07:06.319Z,2.17
2023-01-09T10:09:37.302Z,4.68
2023-01-09T10:12:23.585Z,2.83
2023-01-09T10:14:51.248Z,5.93
2023-01-09T10:17:51.375Z,9.18
2023-01-09T10:20:37.504Z,6.67
2023-01-09T10:23:18.288Z,3.17
2023-01-09T10:25:55.057Z,3.83
2023-01-09T10:28:41.497Z,7.05
2023-01-09T10:31:15.178Z,6.07
2023-01-09T10:33:56.763Z,2.78
2023-01-09T10:36:43.279Z,4.00
2023-01-09T10:39:11.863Z,2.23
2023-01-09T10:41:41.070Z,7.32
2023-01-09T10:44:13.078Z,3.25
2023-01-09T10:46:46.774Z,1.97
2023-01-09T10:49:16.609Z,3.78
2023-01-09T10:51:51.281Z,6.63
2023-01-09T10:54:21.646Z,3.45
2023-01-09T10:56:58.275Z,8.83
2023-01-09T10:59:26.193Z,8.73
2023-01-09T11:01:54.078Z,3.97
2023-01-09T11:04:24.989Z,3.30
2023-01-09T11:07:12.609Z,5.57
2023-01-09T11:09:59.423Z,3.50
2023-01-09T11:12:27.808Z,4.83
2023-01-09T11:14:55.590Z,6.15
2023-01-09T11:17:26.670Z,3.50
2023-01-09T11:20:04.220Z,2.85
2023-01-09T11:22:42.696Z,6.77
2023-01-09T11:25:12.688Z,3.05
2023-01-09T11:27:40.427Z,4.93
2023-01-09T11:30:11.329Z,8.07
2023-01-09T11:32:39.067Z,2.83
2023-01-09T11:35:06.932Z,4.35
2023-01-09T11:37:34.718Z,4.33
2023-01-09T11:40:02.465Z,2.90
2023-01-09T11:42:49.587Z,5.03
2023-01-09T11:45:20.054Z,8.55
2023-01-09T11:47:47.965Z,4.23
2023-01-09T11:50:19.414Z,4.45
2023-01-09T11:52:48.703Z,6.18
2023-01-09T11:55:19.472Z,2.73
2023-01-09T11:57:47.251Z,3.88
2023-01-09T12:00:22.753Z,7.32
2023-01-09T12:02:53.164Z,11.70
2023-01-09T12:05:31.224Z,4.63
2023-01-09T12:08:18.122Z,3.05
2023-01-09T12:11:04.409Z,5.18
2023-01-09T12:13:35.010Z,8.63
2023-01-09T12:16:18.282Z,6.90
2023-01-09T12:19:05.585Z,5.80
2023-01-09T12:21:47.373Z,5.03
2023-01-09T12:24:33.743Z,7.97
2023-01-09T12:27:07.358Z,3.50
2023-01-09T12:29:35.148Z,6.20
2023-01-09T12:32:03.193Z,12.18
2023-01-09T12:34:33.822Z,6.32
2023-01-09T12:37:20.487Z,3.58
2023-01-09T12:39:52.340Z,11.27
2023-01-09T12:42:24.288Z,5.68
2023-01-09T12:45:00.960Z,4.85
2023-01-09T12:47:34.725Z,6.70
2023-01-09T12:50:02.441Z,6.30
2023-01-09T12:52:32.611Z,12.50
2023-01-09T12:55:19.286Z,7.53
2023-01-09T12:57:51.110Z,6.72
2023-01-09T13:00:25.794Z,7.43
2023-01-09T13:03:17.742Z,9.98
2023-01-09T13:05:46.590Z,7.13
2023-01-09T13:08:16.143Z,6.57
2023-01-09T13:10:45.223Z,6.32
2023-01-09T13:13:22.261Z,7.27
2023-01-09T13:15:51.190Z,8.88
2023-01-09T13:18:24.068Z,5.40
2023-01-09T13:20:53.513Z,7.73
2023-01-09T13:23:39.784Z,7.10
2023-01-09T13:26:10.686Z,9.63
2023-01-09T13:28:41.517Z,10.63
2023-01-09T13:31:21.244Z,5.03
2023-01-09T13:33:58.572Z,6.32
2023-01-09T13:36:36.014Z,11.32
2023-01-09T13:39:03.771Z,9.47
2023-01-09T13:41:50.930Z,7.85
2023-01-09T13:44:18.796Z,7.65
2023-01-09T13:46:47.392Z,15.00
2023-01-09T13:49:34.471Z,8.27
2023-01-09T13:52:03.358Z,8.68
2023-01-09T13:54:50.007Z,8.75
2023-01-09T13:57:26.700Z,7.37
2023-01-09T13:59:57.466Z,10.95
2023-01-09T14:02:37.147Z,10.07
2023-01-09T14:05:06.235Z,7.50
2023-01-09T14:07:34.336Z,12.50
2023-01-09T14:10:02.894Z,8.05
2023-01-09T14:12:31.602Z,10.40
2023-01-09T14:14:59.896Z,8.52
2023-01-09T14:17:37.442Z,8.90
2023-01-09T14:20:08.977Z,7.55
2023-01-09T14:22:45.596Z,10.00
2023-01-09T14:25:27.906Z,10.20
2023-01-09T14:27:55.730Z,9.18
2023-01-09T14:30:23.461Z,7.03
2023-01-09T14:33:27.940Z,14.82
2023-01-09T14:35:55.816Z,14.05
2023-01-09T14:38:27.221Z,10.67
2023-01-09T14:40:56.195Z,17.25
2023-01-09T14:43:40.779Z,7.20
2023-01-09T14:46:16.003Z,5.47
2023-01-09T14:48:59.990Z,11.83
2023-01-09T14:51:27.687Z,8.43
2023-01-09T14:53:55.756Z,8.00
2023-01-09T14:56:28.781Z,11.33
2023-01-09T14:59:07.627Z,8.45
2023-01-09T15:01:35.572Z,9.02
2023-01-09T15:04:04.545Z,7.77
2023-01-09T15:06:34.562Z,9.15
2023-01-09T15:09:03.380Z,10.45
2023-01-09T15:11:32.232Z,10.60
2023-01-09T15:14:03.239Z,7.70
2023-01-09T15:16:32.998Z,9.23
2023-01-09T15:19:04.404Z,13.10
2023-01-09T15:21:32.739Z,16.63
2023-01-09T15:24:19.728Z,6.40
2023-01-09T15:26:52.415Z,13.82
2023-01-09T15:29:20.785Z,6.23
2023-01-09T15:31:49.352Z,11.73
2023-01-09T15:34:18.865Z,7.90
2023-01-09T15:36:49.494Z,7.43
2023-01-09T15:39:22.516Z,9.10
2023-01-09T15:42:09.080Z,5.70
2023-01-09T15:44:37.453Z,4.90
2023-01-09T15:47:27.847Z,7.67
2023-01-09T15:49:55.971Z,16.98
2023-01-09T15:52:23.719Z,17.60
2023-01-09T15:54:51.482Z,24.83
2023-01-09T15:57:25.477Z,26.13
2023-01-09T15:59:56.018Z,25.70
2023-01-09T16:02:42.990Z,27.45
2023-01-09T16:05:18.217Z,12.43
2023-01-09T16:07:46.714Z,22.08
2023-01-09T16:10:25.224Z,18.65
2023-01-09T16:12:53.375Z,9.80
2023-01-09T16:15:21.531Z,10.43
2023-01-09T16:18:07.756Z,25.00
2023-01-09T16:20:35.480Z,18.03
2023-01-09T16:23:03.196Z,20.83
2023-01-09T16:25:34.399Z,18.13
2023-01-09T16:28:21.079Z,24.08
2023-01-09T16:30:51.992Z,23.77
2023-01-09T16:33:21.200Z,15.82
2023-01-09T16:35:48.964Z,17.48
2023-01-09T16:38:16.693Z,12.73
2023-01-09T16:41:17.942Z,27.02
2023-01-09T16:43:45.948Z,21.15
2023-01-09T16:46:14.274Z,21.87
2023-01-09T16:48:41.994Z,22.25
2023-01-09T16:51:16.468Z,25.45
2023-01-09T16:53:44.248Z,19.85
2023-01-09T16:56:22.581Z,12.37
2023-01-09T16:58:50.663Z,18.10
2023-01-09T17:01:18.478Z,23.33
2023-01-09T17:03:47.917Z,31.50
2023-01-09T17:06:31.577Z,20.88
2023-01-09T17:08:59.375Z,21.98
2023-01-09T17:11:33.943Z,27.17
2023-01-09T17:14:02.308Z,29.20
2023-01-09T17:16:30.164Z,26.80
2023-01-09T17:18:57.989Z,19.30
2023-01-09T17:21:31.020Z,24.77
2023-01-09T17:24:20.301Z,27.80
2023-01-09T17:27:08.096Z,37.45
2023-01-09T17:29:35.911Z,19.30
2023-01-09T17:32:03.809Z,11.93
2023-01-09T17:34:31.587Z,34.03
2023-01-09T17:36:59.678Z,21.07
2023-01-09T17:39:27.539Z,11.63
2023-01-09T17:41:57.784Z,14.88
2023-01-09T17:44:26.569Z,21.50
2023-01-09T17:46:54.388Z,20.97
2023-01-09T17:49:27.337Z,15.05
2023-01-09T17:51:55.094Z,17.83
2023-01-09T17:54:22.788Z,14.77
2023-01-09T17:56:52.286Z,16.02
2023-01-09T17:59:20.063Z,12.93
2023-01-09T18:01:47.868Z,20.17
2023-01-09T18:04:15.891Z,14.48
2023-01-09T18:06:44.350Z,21.02
2023-01-09T18:09:14.630Z,11.80
2023-01-09T18:11:42.701Z,15.53
2023-01-09T18:14:11.719Z,16.13
2023-01-09T18:16:41.823Z,12.45
2023-01-09T18:19:09.742Z,19.43
2023-01-09T18:21:37.550Z,15.20
2023-01-09T18:24:05.409Z,13.48
2023-01-09T18:26:33.230Z,12.13
2023-01-09T18:29:01.408Z,14.30
2023-01-09T18:31:29.527Z,15.40
2023-01-09T18:33:58.031Z,22.17
2023-01-09T18:36:30.235Z,14.60
2023-01-09T18:39:01.775Z,13.25
2023-01-09T18:41:29.549Z,12.57
2023-01-09T18:43:58.816Z,12.00
2023-01-09T18:46:30.828Z,11.50
2023-01-09T18:49:02.556Z,6.30
2023-01-09T18:51:30.400Z,18.40
2023-01-09T18:53:58.914Z,11.65
2023-01-09T18:56:26.737Z,10.57
2023-01-09T18:58:58.146Z,13.43
2023-01-09T19:01:31.394Z,14.37
2023-01-09T19:04:05.394Z,20.20
2023-01-09T19:06:33.298Z,13.77
2023-01-09T19:09:01.007Z,11.30
2023-01-09T19:11:28.784Z,15.75
2023-01-09T19:13:56.515Z,16.92
2023-01-09T19:16:27.826Z,15.07
2023-01-09T19:18:55.587Z,12.93
2023-01-09T19:21:23.968Z,13.45
2023-01-09T19:23:55.711Z,15.10
2023-01-09T19:26:27.779Z,11.77
2023-01-09T19:28:57.588Z,16.02
2023-01-09T19:31:26.144Z,9.88
2023-01-09T19:33:54.581Z,13.87
2023-01-09T19:36:22.504Z,20.08
2023-01-09T19:38:50.330Z,15.35
2023-01-09T19:41:21.733Z,10.23
2023-01-09T19:43:49.977Z,14.45
2023-01-09T19:46:19.004Z,15.75
2023-01-09T19:48:47.059Z,11.80
2023-01-09T19:51:15.631Z,20.43
2023-01-09T19:53:43.421Z,28.17
2023-01-09T19:56:14.761Z,12.45
2023-01-09T19:58:42.769Z,8.93
2023-01-09T20:01:13.961Z,18.20
2023-01-09T20:03:42.404Z,15.32
2023-01-09T20:06:14.274Z,6.57
2023-01-09T20:08:42.897Z,16.90
2023-01-09T20:11:10.597Z,10.52
2023-01-09T20:13:38.441Z,13.73
2023-01-09T20:16:06.370Z,15.83
2023-01-09T20:18:34.398Z,16.67
2023-01-09T20:21:06.255Z,15.45
2023-01-09T20:23:36.326Z,9.13
2023-01-09T20:26:04.277Z,9.23
2023-01-09T20:28:32.495Z,13.80
2023-01-09T20:31:01.468Z,14.70
2023-01-09T20:33:29.878Z,14.85
2023-01-09T20:36:02.207Z,6.95
2023-01-09T20:38:29.878Z,7.70
2023-01-09T20:40:58.854Z,8.83
2023-01-09T20:43:28.109Z,12.18
2023-01-09T20:45:56.030Z,3.38
2023-01-09T20:48:23.741Z,6.53
2023-01-09T20:50:51.551Z,10.00
2023-01-09T20:53:19.286Z,6.32
2023-01-09T20:55:47.058Z,3.80
2023-01-09T20:58:14.830Z,4.45
2023-01-09T21:00:43.768Z,10.32
2023-01-09T21:03:15.551Z,8.68
2023-01-09T21:05:43.893Z,10.67
2023-01-09T21:08:11.698Z,2.25
2023-01-09T21:10:39.414Z,4.20
2023-01-09T21:13:07.208Z,4.03
2023-01-09T21:15:38.104Z,7.82
2023-01-09T21:18:05.984Z,8.00
2023-01-09T21:20:33.648Z,6.43
2023-01-09T21:23:01.476Z,9.25
2023-01-09T21:25:29.669Z,10.68
2023-01-09T21:27:57.492Z,12.75
2023-01-09T21:30:25.259Z,3.90
2023-01-09T21:32:53.063Z,6.95
2023-01-09T21:35:20.776Z,14.98
2023-01-09T21:37:48.583Z,11.37
2023-01-09T21:40:19.143Z,12.48
2023-01-09T21:43:05.242Z,9.30
2023-01-09T21:45:51.817Z,5.27
2023-01-09T21:48:19.760Z,4.50
2023-01-09T21:50:47.505Z,15.70
2023-01-09T21:53:15.173Z,13.88
2023-01-09T21:55:42.902Z,5.80
2023-01-09T21:58:11.137Z,7.65
2023-01-09T22:00:39.463Z,10.60
2023-01-09T22:03:09.327Z,9.00
2023-01-09T22:05:37.550Z,8.13
2023-01-09T22:08:05.260Z,6.78
2023-01-09T22:10:33.038Z,8.13
2023-01-09T22:13:19.344Z,6.35
2023-01-09T22:15:48.268Z,9.07
2023-01-09T22:18:15.997Z,17.45
2023-01-09T22:20:43.840Z,11.03
2023-01-09T22:23:11.526Z,8.35
2023-01-09T22:25:39.514Z,11.70
2023-01-09T22:28:10.149Z,10.67
2023-01-09T22:30:43.994Z,6.50
2023-01-09T22:33:11.807Z,6.53
2023-01-09T22:35:40.021Z,12.00
2023-01-09T22:38:07.967Z,10.65
2023-01-09T22:40:35.772Z,10.63
2023-01-09T22:43:03.541Z,11.57
2023-01-09T22:45:31.394Z,9.93
2023-01-09T22:47:59.212Z,12.80
2023-01-09T22:50:30.577Z,13.25
2023-01-09T22:52:58.347Z,8.23
2023-01-09T22:55:26.087Z,6.00
2023-01-09T22:57:53.851Z,5.00
2023-01-09T23:00:21.612Z,8.27
2023-01-09T23:02:49.484Z,18.73
2023-01-09T23:05:19.793Z,11.52
2023-01-09T23:07:47.544Z,17.52
2023-01-09T23:10:15.555Z,8.27
2023-01-09T23:12:47.776Z,17.08
2023-01-09T23:15:15.556Z,13.50
2023-01-09T23:17:43.402Z,9.50
2023-01-09T23:20:11.554Z,5.95
2023-01-09T23:22:39.341Z,20.80
2023-01-09T23:25:07.301Z,16.07
2023-01-09T23:27:34.977Z,11.07
2023-01-09T23:30:02.775Z,17.40
2023-01-09T23:32:30.529Z,10.30
2023-01-09T23:34:58.495Z,13.97
2023-01-09T23:37:27.245Z,9.85
2023-01-09T23:39:55.034Z,17.27
2023-01-09T23:42:41.558Z,13.60
2023-01-09T23:45:09.380Z,13.43
2023-01-09T23:47:37.139Z,11.00
2023-01-09T23:50:07.048Z,16.17
2023-01-09T23:52:34.820Z,14.02
2023-01-09T23:55:02.511Z,13.27
2023-01-09T23:57:30.313Z,13.02
2023-01-09T23:59:58.042Z,9.10
